sensor_id;sensor_type;location;lat;lon;timestamp;P1;durP1;ratioP1;P2;durP2;ratioP2
2488;SDS011;1255;48.716;9.124;2023-02-28T00:01:02;1.30;;;1.20;;
2488;SDS011;1255;48.716;9.124;2023-02-28T00:03:29;4.60;;;2.13;;
2488;SDS011;1255;48.716;9.124;2023-02-28T00:06:00;1.85;;;1.55;;
2488;SDS011;1255;48.716;9.124;2023-02-28T00:08:27;1.60;;;1.50;;
2488;SDS011;1255;48.716;9.124;2023-02-28T00:10:55;2.75;;;1.80;;
2488;SDS011;1255;48.716;9.124;2023-02-28T00:13:22;2.08;;;1.60;;
2488;SDS011;1255;48.716;9.124;2023-02-28T00:15:57;3.13;;;2.40;;
2488;SDS011;1255;48.716;9.124;2023-02-28T00:18:25;6.20;;;1.73;;
2488;SDS011;1255;48.716;9.124;2023-02-28T00:20:52;2.15;;;1.70;;
2488;SDS011;1255;48.716;9.124;2023-02-28T00:23:18;2.22;;;2.03;;
2488;SDS011;1255;48.716;9.124;2023-02-28T00:25:45;1.70;;;1.60;;
2488;SDS011;1255;48.716;9.124;2023-02-28T00:28:13;2.78;;;2.00;;
2488;SDS011;1255;48.716;9.124;2023-02-28T00:30:40;1.70;;;1.60;;
2488;SDS011;1255;48.716;9.124;2023-02-28T00:33:06;3.88;;;2.05;;
2488;SDS011;1255;48.716;9.124;2023-02-28T00:35:33;2.20;;;2.03;;
2488;SDS011;1255;48.716;9.124;2023-02-28T00:38:00;2.40;;;1.65;;
2488;SDS011;1255;48.716;9.124;2023-02-28T00:40:27;1.70;;;1.60;;
2488;SDS011;1255;48.716;9.124;2023-02-28T00:42:54;1.70;;;1.60;;
2488;SDS011;1255;48.716;9.124;2023-02-28T00:45:22;2.00;;;1.80;;
2488;SDS011;1255;48.716;9.124;2023-02-28T00:47:48;2.22;;;1.98;;
2488;SDS011;1255;48.716;9.124;2023-02-28T00:50:16;1.60;;;1.50;;
2488;SDS011;1255;48.716;9.124;2023-02-28T00:52:42;3.42;;;1.90;;
2488;SDS011;1255;48.716;9.124;2023-02-28T00:55:09;2.60;;;1.80;;
2488;SDS011;1255;48.716;9.124;2023-02-28T00:57:36;4.43;;;1.80;;
2488;SDS011;1255;48.716;9.124;2023-02-28T01:00:03;5.43;;;2.35;;
2488;SDS011;1255;48.716;9.124;2023-02-28T01:02:32;1.70;;;1.60;;
2488;SDS011;1255;48.716;9.124;2023-02-28T01:04:59;2.63;;;2.05;;
2488;SDS011;1255;48.716;9.124;2023-02-28T01:07:26;3.88;;;2.10;;
2488;SDS011;1255;48.716;9.124;2023-02-28T01:09:53;2.78;;;1.90;;
2488;SDS011;1255;48.716;9.124;2023-02-28T01:12:19;1.92;;;1.40;;
2488;SDS011;1255;48.716;9.124;2023-02-28T01:14:46;2.15;;;1.70;;
2488;SDS011;1255;48.716;9.124;2023-02-28T01:17:13;1.63;;;1.52;;
2488;SDS011;1255;48.716;9.124;2023-02-28T01:19:41;3.30;;;1.70;;
2488;SDS011;1255;48.716;9.124;2023-02-28T01:22:07;5.32;;;2.42;;
2488;SDS011;1255;48.716;9.124;2023-02-28T01:24:34;2.25;;;1.70;;
2488;SDS011;1255;48.716;9.124;2023-02-28T01:27:01;2.10;;;1.45;;
2488;SDS011;1255;48.716;9.124;2023-02-28T01:29:28;2.40;;;2.20;;
2488;SDS011;1255;48.716;9.124;2023-02-28T01:31:54;3.03;;;2.05;;
2488;SDS011;1255;48.716;9.124;2023-02-28T01:34:22;1.75;;;1.60;;
2488;SDS011;1255;48.716;9.124;2023-02-28T01:36:50;2.55;;;1.90;;
2488;SDS011;1255;48.716;9.124;2023-02-28T01:39:16;3.85;;;1.88;;
2488;SDS011;1255;48.716;9.124;2023-02-28T01:41:43;1.73;;;1.63;;
2488;SDS011;1255;48.716;9.124;2023-02-28T01:47:09;1.90;;;1.58;;
2488;SDS011;1255;48.716;9.124;2023-02-28T01:49:36;2.50;;;2.30;;
2488;SDS011;1255;48.716;9.124;2023-02-28T01:52:05;2.40;;;2.17;;
2488;SDS011;1255;48.716;9.124;2023-02-28T01:54:33;1.80;;;1.70;;
2488;SDS011;1255;48.716;9.124;2023-02-28T01:57:01;1.67;;;1.40;;
2488;SDS011;1255;48.716;9.124;2023-02-28T01:59:33;2.95;;;2.15;;
2488;SDS011;1255;48.716;9.124;2023-02-28T02:02:02;2.65;;;1.83;;
2488;SDS011;1255;48.716;9.124;2023-02-28T02:04:32;1.65;;;1.17;;
2488;SDS011;1255;48.716;9.124;2023-02-28T02:07:06;1.88;;;1.60;;
2488;SDS011;1255;48.716;9.124;2023-02-28T02:09:32;2.70;;;2.50;;
2488;SDS011;1255;48.716;9.124;2023-02-28T02:11:59;3.03;;;2.15;;
2488;SDS011;1255;48.716;9.124;2023-02-28T02:14:33;2.22;;;1.77;;
2488;SDS011;1255;48.716;9.124;2023-02-28T02:17:12;2.20;;;1.92;;
2488;SDS011;1255;48.716;9.124;2023-02-28T02:19:51;2.80;;;2.05;;
2488;SDS011;1255;48.716;9.124;2023-02-28T02:22:52;3.17;;;1.90;;
2488;SDS011;1255;48.716;9.124;2023-02-28T02:25:42;1.92;;;1.65;;
2488;SDS011;1255;48.716;9.124;2023-02-28T02:28:25;4.05;;;2.38;;
2488;SDS011;1255;48.716;9.124;2023-02-28T02:31:12;2.40;;;2.00;;
2488;SDS011;1255;48.716;9.124;2023-02-28T02:34:08;4.00;;;2.67;;
2488;SDS011;1255;48.716;9.124;2023-02-28T02:36:53;4.35;;;2.67;;
2488;SDS011;1255;48.716;9.124;2023-02-28T02:39:29;1.98;;;1.52;;
2488;SDS011;1255;48.716;9.124;2023-02-28T02:42:03;2.75;;;2.33;;
2488;SDS011;1255;48.716;9.124;2023-02-28T02:44:38;2.88;;;2.13;;
2488;SDS011;1255;48.716;9.124;2023-02-28T02:47:11;2.55;;;2.35;;
2488;SDS011;1255;48.716;9.124;2023-02-28T02:49:43;2.40;;;2.20;;
2488;SDS011;1255;48.716;9.124;2023-02-28T02:52:14;2.38;;;2.17;;
2488;SDS011;1255;48.716;9.124;2023-02-28T02:54:45;3.15;;;2.30;;
2488;SDS011;1255;48.716;9.124;2023-02-28T02:57:14;2.15;;;1.95;;
2488;SDS011;1255;48.716;9.124;2023-02-28T02:59:47;3.00;;;2.38;;
2488;SDS011;1255;48.716;9.124;2023-02-28T03:02:16;5.75;;;2.35;;
2488;SDS011;1255;48.716;9.124;2023-02-28T03:04:48;2.28;;;2.08;;
2488;SDS011;1255;48.716;9.124;2023-02-28T03:07:18;2.80;;;2.58;;
2488;SDS011;1255;48.716;9.124;2023-02-28T03:09:49;2.72;;;2.40;;
2488;SDS011;1255;48.716;9.124;2023-02-28T03:12:17;2.85;;;2.45;;
2488;SDS011;1255;48.716;9.124;2023-02-28T03:14:48;4.07;;;2.22;;
2488;SDS011;1255;48.716;9.124;2023-02-28T03:17:29;2.45;;;2.25;;
2488;SDS011;1255;48.716;9.124;2023-02-28T03:20:09;2.50;;;2.30;;
2488;SDS011;1255;48.716;9.124;2023-02-28T03:22:46;3.33;;;2.33;;
2488;SDS011;1255;48.716;9.124;2023-02-28T03:25:19;3.00;;;2.70;;
2488;SDS011;1255;48.716;9.124;2023-02-28T03:27:55;2.60;;;2.40;;
2488;SDS011;1255;48.716;9.124;2023-02-28T03:30:28;2.53;;;2.30;;
2488;SDS011;1255;48.716;9.124;2023-02-28T03:33:01;2.60;;;2.40;;
2488;SDS011;1255;48.716;9.124;2023-02-28T03:35:34;2.88;;;2.00;;
2488;SDS011;1255;48.716;9.124;2023-02-28T03:38:05;4.60;;;2.67;;
2488;SDS011;1255;48.716;9.124;2023-02-28T03:40:39;2.65;;;2.30;;
2488;SDS011;1255;48.716;9.124;2023-02-28T03:43:12;4.35;;;2.35;;
2488;SDS011;1255;48.716;9.124;2023-02-28T03:45:43;3.08;;;2.33;;
2488;SDS011;1255;48.716;9.124;2023-02-28T03:48:14;4.13;;;2.55;;
2488;SDS011;1255;48.716;9.124;2023-02-28T03:50:47;3.88;;;2.58;;
2488;SDS011;1255;48.716;9.124;2023-02-28T03:53:19;3.17;;;2.42;;
2488;SDS011;1255;48.716;9.124;2023-02-28T03:55:51;2.70;;;2.50;;
2488;SDS011;1255;48.716;9.124;2023-02-28T03:58:24;3.20;;;2.35;;
2488;SDS011;1255;48.716;9.124;2023-02-28T04:00:57;3.00;;;2.50;;
2488;SDS011;1255;48.716;9.124;2023-02-28T04:03:32;3.67;;;2.28;;
2488;SDS011;1255;48.716;9.124;2023-02-28T04:06:01;3.50;;;2.42;;
2488;SDS011;1255;48.716;9.124;2023-02-28T04:08:29;4.07;;;2.67;;
2488;SDS011;1255;48.716;9.124;2023-02-28T04:10:57;2.58;;;2.33;;
2488;SDS011;1255;48.716;9.124;2023-02-28T04:13:27;2.60;;;1.73;;
2488;SDS011;1255;48.716;9.124;2023-02-28T04:15:54;4.40;;;2.83;;
2488;SDS011;1255;48.716;9.124;2023-02-28T04:18:20;2.95;;;2.67;;
2488;SDS011;1255;48.716;9.124;2023-02-28T04:20:47;2.83;;;2.63;;
2488;SDS011;1255;48.716;9.124;2023-02-28T04:23:15;3.10;;;2.80;;
2488;SDS011;1255;48.716;9.124;2023-02-28T04:25:42;3.30;;;2.70;;
2488;SDS011;1255;48.716;9.124;2023-02-28T04:28:08;2.03;;;1.92;;
2488;SDS011;1255;48.716;9.124;2023-02-28T04:30:36;2.70;;;2.22;;
2488;SDS011;1255;48.716;9.124;2023-02-28T04:33:04;4.28;;;2.83;;
2488;SDS011;1255;48.716;9.124;2023-02-28T04:35:30;2.25;;;2.00;;
2488;SDS011;1255;48.716;9.124;2023-02-28T04:37:57;3.25;;;2.50;;
2488;SDS011;1255;48.716;9.124;2023-02-28T04:40:25;4.95;;;2.42;;
2488;SDS011;1255;48.716;9.124;2023-02-28T04:42:52;5.05;;;3.10;;
2488;SDS011;1255;48.716;9.124;2023-02-28T04:45:18;4.18;;;3.60;;
2488;SDS011;1255;48.716;9.124;2023-02-28T04:47:45;4.57;;;2.47;;
2488;SDS011;1255;48.716;9.124;2023-02-28T04:50:12;3.42;;;2.83;;
2488;SDS011;1255;48.716;9.124;2023-02-28T04:52:39;4.15;;;2.92;;
2488;SDS011;1255;48.716;9.124;2023-02-28T04:55:06;4.20;;;2.80;;
2488;SDS011;1255;48.716;9.124;2023-02-28T04:57:34;2.55;;;2.35;;
2488;SDS011;1255;48.716;9.124;2023-02-28T05:00:02;5.63;;;2.80;;
2488;SDS011;1255;48.716;9.124;2023-02-28T05:02:33;4.40;;;3.17;;
2488;SDS011;1255;48.716;9.124;2023-02-28T05:05:00;2.33;;;2.13;;
2488;SDS011;1255;48.716;9.124;2023-02-28T05:07:27;3.20;;;2.90;;
2488;SDS011;1255;48.716;9.124;2023-02-28T05:09:54;4.35;;;2.90;;
2488;SDS011;1255;48.716;9.124;2023-02-28T05:12:20;3.13;;;2.55;;
2488;SDS011;1255;48.716;9.124;2023-02-28T05:14:48;3.85;;;2.75;;
2488;SDS011;1255;48.716;9.124;2023-02-28T05:17:15;2.80;;;2.50;;
2488;SDS011;1255;48.716;9.124;2023-02-28T05:19:42;2.70;;;2.45;;
2488;SDS011;1255;48.716;9.124;2023-02-28T05:22:12;4.32;;;3.85;;
2488;SDS011;1255;48.716;9.124;2023-02-28T05:24:40;5.70;;;4.18;;
2488;SDS011;1255;48.716;9.124;2023-02-28T05:27:07;4.15;;;3.40;;
2488;SDS011;1255;48.716;9.124;2023-02-28T05:29:34;6.38;;;3.63;;
2488;SDS011;1255;48.716;9.124;2023-02-28T05:32:07;3.92;;;3.50;;
2488;SDS011;1255;48.716;9.124;2023-02-28T05:34:35;4.25;;;3.17;;
2488;SDS011;1255;48.716;9.124;2023-02-28T05:37:02;4.60;;;3.25;;
2488;SDS011;1255;48.716;9.124;2023-02-28T05:39:29;3.78;;;3.03;;
2488;SDS011;1255;48.716;9.124;2023-02-28T05:41:56;5.65;;;3.20;;
2488;SDS011;1255;48.716;9.124;2023-02-28T05:44:22;4.40;;;3.20;;
2488;SDS011;1255;48.716;9.124;2023-02-28T05:46:49;3.83;;;3.05;;
2488;SDS011;1255;48.716;9.124;2023-02-28T05:49:17;4.00;;;2.80;;
2488;SDS011;1255;48.716;9.124;2023-02-28T05:51:44;4.00;;;3.22;;
2488;SDS011;1255;48.716;9.124;2023-02-28T05:54:11;6.70;;;2.83;;
2488;SDS011;1255;48.716;9.124;2023-02-28T05:56:37;3.13;;;2.40;;
2488;SDS011;1255;48.716;9.124;2023-02-28T05:59:05;13.80;;;3.75;;
2488;SDS011;1255;48.716;9.124;2023-02-28T06:01:33;3.28;;;2.40;;
2488;SDS011;1255;48.716;9.124;2023-02-28T06:04:01;3.92;;;2.75;;
2488;SDS011;1255;48.716;9.124;2023-02-28T06:06:31;3.58;;;3.28;;
2488;SDS011;1255;48.716;9.124;2023-02-28T06:08:59;4.75;;;3.25;;
2488;SDS011;1255;48.716;9.124;2023-02-28T06:11:26;9.75;;;3.15;;
2488;SDS011;1255;48.716;9.124;2023-02-28T06:13:53;4.50;;;3.38;;
2488;SDS011;1255;48.716;9.124;2023-02-28T06:16:21;5.10;;;3.42;;
2488;SDS011;1255;48.716;9.124;2023-02-28T06:18:48;4.60;;;3.60;;
2488;SDS011;1255;48.716;9.124;2023-02-28T06:21:15;5.18;;;4.28;;
2488;SDS011;1255;48.716;9.124;2023-02-28T06:23:43;5.30;;;3.33;;
2488;SDS011;1255;48.716;9.124;2023-02-28T06:26:09;4.75;;;3.38;;
2488;SDS011;1255;48.716;9.124;2023-02-28T06:28:36;3.95;;;3.05;;
2488;SDS011;1255;48.716;9.124;2023-02-28T06:31:07;4.68;;;3.60;;
2488;SDS011;1255;48.716;9.124;2023-02-28T06:33:34;4.00;;;3.20;;
2488;SDS011;1255;48.716;9.124;2023-02-28T06:36:01;5.15;;;3.50;;
2488;SDS011;1255;48.716;9.124;2023-02-28T06:38:28;3.38;;;3.08;;
2488;SDS011;1255;48.716;9.124;2023-02-28T06:40:56;3.30;;;2.50;;
2488;SDS011;1255;48.716;9.124;2023-02-28T06:43:24;5.07;;;3.30;;
2488;SDS011;1255;48.716;9.124;2023-02-28T06:45:54;5.50;;;4.13;;
2488;SDS011;1255;48.716;9.124;2023-02-28T06:48:21;3.45;;;3.10;;
2488;SDS011;1255;48.716;9.124;2023-02-28T06:50:49;7.25;;;3.50;;
2488;SDS011;1255;48.716;9.124;2023-02-28T06:53:16;6.07;;;3.67;;
2488;SDS011;1255;48.716;9.124;2023-02-28T06:55:44;3.15;;;2.70;;
2488;SDS011;1255;48.716;9.124;2023-02-28T06:58:13;4.35;;;3.90;;
2488;SDS011;1255;48.716;9.124;2023-02-28T07:00:43;3.90;;;3.53;;
2488;SDS011;1255;48.716;9.124;2023-02-28T07:03:11;4.65;;;3.28;;
2488;SDS011;1255;48.716;9.124;2023-02-28T07:05:40;2.90;;;2.35;;
2488;SDS011;1255;48.716;9.124;2023-02-28T07:08:08;6.32;;;4.10;;
2488;SDS011;1255;48.716;9.124;2023-02-28T07:10:37;5.22;;;3.33;;
2488;SDS011;1255;48.716;9.124;2023-02-28T07:13:05;4.40;;;3.67;;
2488;SDS011;1255;48.716;9.124;2023-02-28T07:15:35;7.82;;;3.45;;
2488;SDS011;1255;48.716;9.124;2023-02-28T07:18:02;5.32;;;3.03;;
2488;SDS011;1255;48.716;9.124;2023-02-28T07:20:30;3.60;;;3.30;;
2488;SDS011;1255;48.716;9.124;2023-02-28T07:22:57;5.32;;;3.85;;
2488;SDS011;1255;48.716;9.124;2023-02-28T07:25:26;5.65;;;4.45;;
2488;SDS011;1255;48.716;9.124;2023-02-28T07:27:54;7.70;;;4.05;;
2488;SDS011;1255;48.716;9.124;2023-02-28T07:30:24;3.88;;;3.47;;
2488;SDS011;1255;48.716;9.124;2023-02-28T07:32:53;4.20;;;3.80;;
2488;SDS011;1255;48.716;9.124;2023-02-28T07:35:21;5.78;;;4.40;;
2488;SDS011;1255;48.716;9.124;2023-02-28T07:37:48;4.90;;;3.72;;
2488;SDS011;1255;48.716;9.124;2023-02-28T07:40:16;5.85;;;4.13;;
2488;SDS011;1255;48.716;9.124;2023-02-28T07:42:44;5.25;;;4.05;;
2488;SDS011;1255;48.716;9.124;2023-02-28T07:45:11;4.15;;;3.50;;
2488;SDS011;1255;48.716;9.124;2023-02-28T07:47:39;4.68;;;4.22;;
2488;SDS011;1255;48.716;9.124;2023-02-28T07:50:10;5.03;;;3.38;;
2488;SDS011;1255;48.716;9.124;2023-02-28T07:52:39;9.48;;;4.45;;
2488;SDS011;1255;48.716;9.124;2023-02-28T07:55:08;6.95;;;4.13;;
2488;SDS011;1255;48.716;9.124;2023-02-28T07:57:35;5.07;;;3.92;;
2488;SDS011;1255;48.716;9.124;2023-02-28T08:00:03;3.88;;;3.50;;
2488;SDS011;1255;48.716;9.124;2023-02-28T08:02:32;5.82;;;4.50;;
2488;SDS011;1255;48.716;9.124;2023-02-28T08:05:00;5.28;;;3.35;;
2488;SDS011;1255;48.716;9.124;2023-02-28T08:07:29;6.95;;;4.47;;
2488;SDS011;1255;48.716;9.124;2023-02-28T08:09:57;5.55;;;4.20;;
2488;SDS011;1255;48.716;9.124;2023-02-28T08:12:25;4.53;;;3.92;;
2488;SDS011;1255;48.716;9.124;2023-02-28T08:14:53;5.47;;;4.28;;
2488;SDS011;1255;48.716;9.124;2023-02-28T08:17:20;4.03;;;3.60;;
2488;SDS011;1255;48.716;9.124;2023-02-28T08:19:47;5.45;;;4.40;;
2488;SDS011;1255;48.716;9.124;2023-02-28T08:22:15;6.30;;;4.40;;
2488;SDS011;1255;48.716;9.124;2023-02-28T08:24:44;5.68;;;4.80;;
2488;SDS011;1255;48.716;9.124;2023-02-28T08:27:11;4.10;;;3.70;;
2488;SDS011;1255;48.716;9.124;2023-02-28T08:29:39;5.10;;;4.10;;
2488;SDS011;1255;48.716;9.124;2023-02-28T08:32:06;6.22;;;4.18;;
2488;SDS011;1255;48.716;9.124;2023-02-28T08:34:35;4.78;;;4.22;;
2488;SDS011;1255;48.716;9.124;2023-02-28T08:37:02;6.25;;;5.25;;
2488;SDS011;1255;48.716;9.124;2023-02-28T08:39:30;4.00;;;3.53;;
2488;SDS011;1255;48.716;9.124;2023-02-28T08:42:01;7.72;;;4.50;;
2488;SDS011;1255;48.716;9.124;2023-02-28T08:44:29;4.80;;;4.32;;
2488;SDS011;1255;48.716;9.124;2023-02-28T08:46:57;6.00;;;3.85;;
2488;SDS011;1255;48.716;9.124;2023-02-28T08:49:25;5.15;;;3.92;;
2488;SDS011;1255;48.716;9.124;2023-02-28T08:51:53;5.68;;;3.80;;
2488;SDS011;1255;48.716;9.124;2023-02-28T08:54:22;5.20;;;4.40;;
2488;SDS011;1255;48.716;9.124;2023-02-28T08:56:50;6.32;;;5.05;;
2488;SDS011;1255;48.716;9.124;2023-02-28T08:59:19;5.10;;;4.70;;
2488;SDS011;1255;48.716;9.124;2023-02-28T09:01:46;6.20;;;4.55;;
2488;SDS011;1255;48.716;9.124;2023-02-28T09:04:13;4.40;;;3.55;;
2488;SDS011;1255;48.716;9.124;2023-02-28T09:06:41;5.63;;;4.60;;
2488;SDS011;1255;48.716;9.124;2023-02-28T09:09:09;4.68;;;4.15;;
2488;SDS011;1255;48.716;9.124;2023-02-28T09:11:37;4.80;;;4.20;;
2488;SDS011;1255;48.716;9.124;2023-02-28T09:14:03;4.43;;;3.95;;
2488;SDS011;1255;48.716;9.124;2023-02-28T09:16:32;6.25;;;4.28;;
2488;SDS011;1255;48.716;9.124;2023-02-28T09:19:00;6.35;;;3.90;;
2488;SDS011;1255;48.716;9.124;2023-02-28T09:21:27;6.13;;;4.65;;
2488;SDS011;1255;48.716;9.124;2023-02-28T09:23:54;7.47;;;4.88;;
2488;SDS011;1255;48.716;9.124;2023-02-28T09:26:22;6.03;;;4.65;;
2488;SDS011;1255;48.716;9.124;2023-02-28T09:28:50;5.38;;;3.47;;
2488;SDS011;1255;48.716;9.124;2023-02-28T09:31:18;6.40;;;5.80;;
2488;SDS011;1255;48.716;9.124;2023-02-28T09:33:48;5.65;;;4.40;;
2488;SDS011;1255;48.716;9.124;2023-02-28T09:36:15;7.03;;;4.28;;
2488;SDS011;1255;48.716;9.124;2023-02-28T09:38:42;5.22;;;4.65;;
2488;SDS011;1255;48.716;9.124;2023-02-28T09:41:11;5.03;;;4.10;;
2488;SDS011;1255;48.716;9.124;2023-02-28T09:43:40;5.68;;;3.55;;
2488;SDS011;1255;48.716;9.124;2023-02-28T09:46:14;10.20;;;5.03;;
2488;SDS011;1255;48.716;9.124;2023-02-28T09:48:53;5.32;;;4.22;;
2488;SDS011;1255;48.716;9.124;2023-02-28T09:51:30;6.55;;;4.57;;
2488;SDS011;1255;48.716;9.124;2023-02-28T09:54:05;7.97;;;4.30;;
2488;SDS011;1255;48.716;9.124;2023-02-28T09:56:36;8.05;;;4.60;;
2488;SDS011;1255;48.716;9.124;2023-02-28T09:59:05;6.95;;;4.65;;
2488;SDS011;1255;48.716;9.124;2023-02-28T10:01:42;5.93;;;4.50;;
2488;SDS011;1255;48.716;9.124;2023-02-28T10:04:22;5.45;;;4.95;;
2488;SDS011;1255;48.716;9.124;2023-02-28T10:07:02;7.13;;;4.60;;
2488;SDS011;1255;48.716;9.124;2023-02-28T10:09:42;6.10;;;4.15;;
2488;SDS011;1255;48.716;9.124;2023-02-28T10:12:11;6.30;;;4.90;;
2488;SDS011;1255;48.716;9.124;2023-02-28T10:14:39;6.38;;;4.30;;
2488;SDS011;1255;48.716;9.124;2023-02-28T10:17:12;8.73;;;4.85;;
2488;SDS011;1255;48.716;9.124;2023-02-28T10:19:46;6.93;;;4.50;;
2488;SDS011;1255;48.716;9.124;2023-02-28T10:22:22;6.15;;;4.50;;
2488;SDS011;1255;48.716;9.124;2023-02-28T10:24:54;7.20;;;4.88;;
2488;SDS011;1255;48.716;9.124;2023-02-28T10:27:29;4.40;;;4.00;;
2488;SDS011;1255;48.716;9.124;2023-02-28T10:29:58;6.47;;;4.85;;
2488;SDS011;1255;48.716;9.124;2023-02-28T10:32:28;7.13;;;4.72;;
2488;SDS011;1255;48.716;9.124;2023-02-28T10:35:01;7.00;;;5.07;;
2488;SDS011;1255;48.716;9.124;2023-02-28T10:37:40;7.65;;;5.03;;
2488;SDS011;1255;48.716;9.124;2023-02-28T10:40:24;6.50;;;4.95;;
2488;SDS011;1255;48.716;9.124;2023-02-28T10:42:55;6.80;;;4.30;;
2488;SDS011;1255;48.716;9.124;2023-02-28T10:45:23;6.00;;;5.10;;
2488;SDS011;1255;48.716;9.124;2023-02-28T10:47:53;6.00;;;5.30;;
2488;SDS011;1255;48.716;9.124;2023-02-28T10:50:34;6.35;;;5.72;;
2488;SDS011;1255;48.716;9.124;2023-02-28T10:53:07;5.25;;;4.75;;
2488;SDS011;1255;48.716;9.124;2023-02-28T10:55:42;7.70;;;4.97;;
2488;SDS011;1255;48.716;9.124;2023-02-28T10:58:26;6.55;;;4.88;;
2488;SDS011;1255;48.716;9.124;2023-02-28T11:00:56;7.35;;;5.43;;
2488;SDS011;1255;48.716;9.124;2023-02-28T11:03:33;6.60;;;4.78;;
2488;SDS011;1255;48.716;9.124;2023-02-28T11:06:06;6.15;;;4.80;;
2488;SDS011;1255;48.716;9.124;2023-02-28T11:08:53;6.20;;;4.20;;
2488;SDS011;1255;48.716;9.124;2023-02-28T11:11:23;5.25;;;4.75;;
2488;SDS011;1255;48.716;9.124;2023-02-28T11:13:51;6.45;;;4.60;;
2488;SDS011;1255;48.716;9.124;2023-02-28T11:16:20;6.05;;;5.03;;
2488;SDS011;1255;48.716;9.124;2023-02-28T11:18:49;6.85;;;4.78;;
2488;SDS011;1255;48.716;9.124;2023-02-28T11:21:21;6.80;;;5.05;;
2488;SDS011;1255;48.716;9.124;2023-02-28T11:23:51;7.43;;;5.28;;
2488;SDS011;1255;48.716;9.124;2023-02-28T11:26:42;5.95;;;5.07;;
2488;SDS011;1255;48.716;9.124;2023-02-28T11:29:11;5.90;;;5.32;;
2488;SDS011;1255;48.716;9.124;2023-02-28T11:31:47;6.28;;;5.00;;
2488;SDS011;1255;48.716;9.124;2023-02-28T11:34:34;7.25;;;5.45;;
2488;SDS011;1255;48.716;9.124;2023-02-28T11:37:04;5.70;;;5.20;;
2488;SDS011;1255;48.716;9.124;2023-02-28T11:39:36;6.40;;;5.80;;
2488;SDS011;1255;48.716;9.124;2023-02-28T11:42:10;6.10;;;5.50;;
2488;SDS011;1255;48.716;9.124;2023-02-28T11:44:55;6.72;;;5.07;;
2488;SDS011;1255;48.716;9.124;2023-02-28T11:47:42;5.80;;;5.20;;
2488;SDS011;1255;48.716;9.124;2023-02-28T11:50:16;6.10;;;5.50;;
2488;SDS011;1255;48.716;9.124;2023-02-28T11:52:55;7.15;;;5.10;;
2488;SDS011;1255;48.716;9.124;2023-02-28T11:55:24;7.03;;;5.47;;
2488;SDS011;1255;48.716;9.124;2023-02-28T11:57:59;7.50;;;5.25;;
2488;SDS011;1255;48.716;9.124;2023-02-28T12:00:39;6.20;;;5.22;;
2488;SDS011;1255;48.716;9.124;2023-02-28T12:03:16;8.18;;;6.13;;
2488;SDS011;1255;48.716;9.124;2023-02-28T12:05:53;6.32;;;5.40;;
2488;SDS011;1255;48.716;9.124;2023-02-28T12:08:40;5.90;;;4.60;;
2488;SDS011;1255;48.716;9.124;2023-02-28T12:11:14;5.20;;;4.70;;
2488;SDS011;1255;48.716;9.124;2023-02-28T12:13:53;6.47;;;5.63;;
2488;SDS011;1255;48.716;9.124;2023-02-28T12:16:35;7.28;;;5.35;;
2488;SDS011;1255;48.716;9.124;2023-02-28T12:19:17;6.30;;;5.50;;
2488;SDS011;1255;48.716;9.124;2023-02-28T12:22:05;6.60;;;5.93;;
2488;SDS011;1255;48.716;9.124;2023-02-28T12:24:52;7.22;;;5.25;;
2488;SDS011;1255;48.716;9.124;2023-02-28T12:27:29;5.75;;;4.63;;
2488;SDS011;1255;48.716;9.124;2023-02-28T12:30:00;6.70;;;5.43;;
2488;SDS011;1255;48.716;9.124;2023-02-28T12:32:32;6.53;;;5.47;;
2488;SDS011;1255;48.716;9.124;2023-02-28T12:35:04;8.68;;;6.22;;
2488;SDS011;1255;48.716;9.124;2023-02-28T12:37:39;6.95;;;5.78;;
2488;SDS011;1255;48.716;9.124;2023-02-28T12:40:13;6.50;;;5.55;;
2488;SDS011;1255;48.716;9.124;2023-02-28T12:42:44;5.47;;;4.72;;
2488;SDS011;1255;48.716;9.124;2023-02-28T12:45:16;6.40;;;5.80;;
2488;SDS011;1255;48.716;9.124;2023-02-28T12:47:46;5.60;;;5.00;;
2488;SDS011;1255;48.716;9.124;2023-02-28T12:50:17;5.57;;;5.03;;
2488;SDS011;1255;48.716;9.124;2023-02-28T12:52:47;5.65;;;5.05;;
2488;SDS011;1255;48.716;9.124;2023-02-28T12:55:26;5.47;;;4.95;;
2488;SDS011;1255;48.716;9.124;2023-02-28T12:57:59;5.85;;;4.85;;
2488;SDS011;1255;48.716;9.124;2023-02-28T13:00:35;5.47;;;4.97;;
2488;SDS011;1255;48.716;9.124;2023-02-28T13:06:22;6.55;;;5.70;;
2488;SDS011;1255;48.716;9.124;2023-02-28T13:09:04;5.05;;;4.55;;
2488;SDS011;1255;48.716;9.124;2023-02-28T13:11:40;6.40;;;5.75;;
2488;SDS011;1255;48.716;9.124;2023-02-28T13:14:18;8.43;;;6.82;;
2488;SDS011;1255;48.716;9.124;2023-02-28T13:16:56;5.88;;;5.25;;
2488;SDS011;1255;48.716;9.124;2023-02-28T13:19:29;8.30;;;5.90;;
2488;SDS011;1255;48.716;9.124;2023-02-28T13:21:58;5.90;;;5.30;;
2488;SDS011;1255;48.716;9.124;2023-02-28T13:24:40;8.27;;;5.30;;
2488;SDS011;1255;48.716;9.124;2023-02-28T13:33:23;7.68;;;5.43;;
2488;SDS011;1255;48.716;9.124;2023-02-28T13:36:01;6.28;;;5.57;;
2488;SDS011;1255;48.716;9.124;2023-02-28T13:38:35;8.45;;;5.10;;
2488;SDS011;1255;48.716;9.124;2023-02-28T13:44:08;6.60;;;5.22;;
2488;SDS011;1255;48.716;9.124;2023-02-28T13:46:38;5.50;;;5.00;;
2488;SDS011;1255;48.716;9.124;2023-02-28T13:49:42;7.13;;;6.25;;
2488;SDS011;1255;48.716;9.124;2023-02-28T13:52:10;5.78;;;5.00;;
2488;SDS011;1255;48.716;9.124;2023-02-28T13:54:48;5.93;;;5.32;;
2488;SDS011;1255;48.716;9.124;2023-02-28T13:57:33;6.40;;;5.18;;
2488;SDS011;1255;48.716;9.124;2023-02-28T14:00:16;5.63;;;4.97;;
2488;SDS011;1255;48.716;9.124;2023-02-28T14:02:57;6.97;;;5.32;;
2488;SDS011;1255;48.716;9.124;2023-02-28T14:05:35;5.18;;;4.65;;
2488;SDS011;1255;48.716;9.124;2023-02-28T14:08:04;5.68;;;4.88;;
2488;SDS011;1255;48.716;9.124;2023-02-28T14:10:41;5.82;;;4.78;;
2488;SDS011;1255;48.716;9.124;2023-02-28T14:13:14;6.25;;;4.95;;
2488;SDS011;1255;48.716;9.124;2023-02-28T14:15:58;5.82;;;5.05;;
2488;SDS011;1255;48.716;9.124;2023-02-28T14:18:27;6.30;;;5.70;;
2488;SDS011;1255;48.716;9.124;2023-02-28T14:27:05;6.43;;;5.03;;
2488;SDS011;1255;48.716;9.124;2023-02-28T14:30:02;5.90;;;4.72;;
2488;SDS011;1255;48.716;9.124;2023-02-28T14:32:49;5.72;;;5.13;;
2488;SDS011;1255;48.716;9.124;2023-02-28T14:35:36;6.10;;;5.47;;
2488;SDS011;1255;48.716;9.124;2023-02-28T14:38:13;6.63;;;5.22;;
2488;SDS011;1255;48.716;9.124;2023-02-28T14:40:46;5.47;;;4.85;;
2488;SDS011;1255;48.716;9.124;2023-02-28T14:43:19;5.90;;;4.35;;
2488;SDS011;1255;48.716;9.124;2023-02-28T14:45:49;10.25;;;6.00;;
2488;SDS011;1255;48.716;9.124;2023-02-28T14:48:19;5.82;;;4.80;;
2488;SDS011;1255;48.716;9.124;2023-02-28T14:50:51;6.78;;;5.38;;
2488;SDS011;1255;48.716;9.124;2023-02-28T14:53:20;6.93;;;5.10;;
2488;SDS011;1255;48.716;9.124;2023-02-28T14:55:48;6.47;;;5.07;;
2488;SDS011;1255;48.716;9.124;2023-02-28T14:58:22;5.40;;;4.90;;
2488;SDS011;1255;48.716;9.124;2023-02-28T15:00:52;5.65;;;4.90;;
2488;SDS011;1255;48.716;9.124;2023-02-28T15:03:22;5.85;;;4.72;;
2488;SDS011;1255;48.716;9.124;2023-02-28T15:05:52;5.10;;;4.60;;
2488;SDS011;1255;48.716;9.124;2023-02-28T15:08:22;7.25;;;5.20;;
2488;SDS011;1255;48.716;9.124;2023-02-28T15:10:53;5.40;;;4.80;;
2488;SDS011;1255;48.716;9.124;2023-02-28T15:13:21;5.45;;;4.95;;
2488;SDS011;1255;48.716;9.124;2023-02-28T15:15:52;6.53;;;5.82;;
2488;SDS011;1255;48.716;9.124;2023-02-28T15:18:27;6.90;;;5.30;;
2488;SDS011;1255;48.716;9.124;2023-02-28T15:20:58;5.05;;;4.55;;
2488;SDS011;1255;48.716;9.124;2023-02-28T15:23:28;5.35;;;4.85;;
2488;SDS011;1255;48.716;9.124;2023-02-28T15:25:56;5.75;;;5.15;;
2488;SDS011;1255;48.716;9.124;2023-02-28T15:28:23;7.13;;;4.72;;
2488;SDS011;1255;48.716;9.124;2023-02-28T15:30:51;8.25;;;4.93;;
2488;SDS011;1255;48.716;9.124;2023-02-28T15:33:20;5.25;;;4.85;;
2488;SDS011;1255;48.716;9.124;2023-02-28T15:35:50;5.75;;;4.70;;
2488;SDS011;1255;48.716;9.124;2023-02-28T15:38:18;6.93;;;5.38;;
2488;SDS011;1255;48.716;9.124;2023-02-28T15:40:50;8.07;;;5.60;;
2488;SDS011;1255;48.716;9.124;2023-02-28T15:43:23;6.40;;;5.57;;
2488;SDS011;1255;48.716;9.124;2023-02-28T15:45:53;6.68;;;4.70;;
2488;SDS011;1255;48.716;9.124;2023-02-28T15:48:24;6.93;;;5.00;;
2488;SDS011;1255;48.716;9.124;2023-02-28T15:50:54;5.70;;;4.38;;
2488;SDS011;1255;48.716;9.124;2023-02-28T15:53:24;6.07;;;5.10;;
2488;SDS011;1255;48.716;9.124;2023-02-28T15:55:55;6.00;;;5.13;;
2488;SDS011;1255;48.716;9.124;2023-02-28T15:58:24;7.50;;;5.85;;
2488;SDS011;1255;48.716;9.124;2023-02-28T16:01:03;5.97;;;5.38;;